Terminal Aerodrome Forecast
Issued by NWS

Home | Current Version | Previous Version | Text Only | Print | Product List | Glossary On
Versions: 1 2 3 4 5 6 7 8 9 10 11 12 13 14 15 16 17 18 19 20 21 22 23 24 25 26 27 28 29 30 31 32 33 34
195
FTUS43 KFGF 241731
TAFTVF
TAF
KTVF 241731Z 2418/2518 36009KT P6SM -SHRA OVC008
      TEMPO 2418/2422 3SM -RA BR OVC010
     FM242200 34009KT P6SM OVC008
      TEMPO 2422/2424 2SM -SHRA BR OVC005
     FM250000 33008KT P6SM VCSH OVC008
     FM250300 34009KT P6SM OVC006=

USA.gov is the U.S. government's official web portal to all federal, state and local government web resources and services.